Time;durP1;ratioP1;P1;durP2;ratioP2;P2;SDS_P1;SDS_P2;PMS_P1;PMS_P2;Temp;Humidity;BMP_temperature;BMP_pressure;BME280_temperature;BME280_humidity;BME280_pressure;Samples;Min_cycle;Max_cycle;Signal;HPM_P1;HPM_P2
2024/02/01 00:00:16;;;;;;;;;;;;;;;-4.53;67.01;102509.56;107542;1250;108350;-65
2024/02/01 00:03:04;;;;;;;;;;;;;;;-4.55;66.67;102510.27;107552;1251;110900;-65
2024/02/01 00:05:32;;;;;;;;;;;;;;;-4.61;66.91;102507.61;107511;1250;97820;-64
2024/02/01 00:08:01;;;;;;;;;;;;;;;-4.69;66.50;102500.94;107618;1251;97839;-65
2024/02/01 00:10:29;;;;;;;;;;;;;;;-4.78;66.61;102501.27;107579;1250;111084;-65
2024/02/01 00:12:57;;;;;;;;;;;;;;;-4.86;66.34;102503.17;107580;1251;107887;-65
2024/02/01 00:15:25;;;;;;;;;;;;;;;-4.94;66.48;102499.98;107543;1251;107663;-66
2024/02/01 00:17:53;;;;;;;;;;;;;;;-5.01;66.31;102504.16;107614;1251;97904;-64
2024/02/01 00:20:22;;;;;;;;;;;;;;;-5.05;66.20;102503.27;107642;1251;97822;-66
2024/02/01 00:22:50;;;;;;;;;;;;;;;-5.10;66.36;102498.69;107576;1251;111276;-66
2024/02/01 00:25:19;;;;;;;;;;;;;;;-5.14;66.07;102500.23;107566;1254;108501;-65
2024/02/01 00:27:48;;;;;;;;;;;;;;;-5.17;66.12;102494.45;107576;1250;108620;-67
2024/02/01 00:30:17;;;;;;;;;;;;;;;-5.22;66.12;102500.90;107514;1251;97883;-66
2024/02/01 00:32:46;;;;;;;;;;;;;;;-5.27;66.31;102501.77;107670;1251;97829;-67
2024/02/01 00:35:14;;;;;;;;;;;;;;;-5.32;66.11;102498.95;107585;1251;112093;-65
2024/02/01 00:37:43;;;;;;;;;;;;;;;-5.42;66.19;102495.73;107598;1251;107853;-65
2024/02/01 00:40:12;;;;;;;;;;;;;;;-5.50;66.10;102492.19;107576;1251;108347;-65
2024/02/01 00:42:40;;;;;;;;;;;;;;;-5.55;66.42;102487.42;107522;1253;99453;-65
2024/02/01 00:45:09;;;;;;;;;;;;;;;-5.59;66.33;102479.20;107601;1251;97805;-66
2024/02/01 00:47:37;;;;;;;;;;;;;;;-5.61;66.52;102478.31;107645;1251;111774;-65
2024/02/01 00:50:06;;;;;;;;;;;;;;;-5.65;66.61;102472.34;107627;1251;108269;-65
2024/02/01 00:52:34;;;;;;;;;;;;;;;-5.68;66.43;102464.45;107582;1251;108271;-64
2024/02/01 00:55:03;;;;;;;;;;;;;;;-5.72;67.02;102462.16;107597;1251;97911;-65
2024/02/01 00:57:31;;;;;;;;;;;;;;;-5.75;66.74;102463.02;107592;1254;97719;-66
2024/02/01 00:59:59;;;;;;;;;;;;;;;-5.77;66.74;102458.10;107592;1253;110641;-66
2024/02/01 01:02:27;;;;;;;;;;;;;;;-5.78;66.89;102449.01;107546;1251;108580;-65
2024/02/01 01:04:56;;;;;;;;;;;;;;;-5.80;66.78;102445.86;107576;1251;108321;-65
2024/02/01 01:07:24;;;;;;;;;;;;;;;-5.82;66.68;102448.98;107573;1251;98529;-64
2024/02/01 01:09:52;;;;;;;;;;;;;;;-5.83;66.72;102447.92;107609;1251;97896;-64
2024/02/01 01:12:21;;;;;;;;;;;;;;;-5.85;66.43;102450.89;107501;1251;111670;-65
2024/02/01 01:14:49;;;;;;;;;;;;;;;-5.88;66.47;102444.92;107569;1254;108818;-65
2024/02/01 01:17:18;;;;;;;;;;;;;;;-5.93;66.77;102441.92;107606;1251;107645;-67
2024/02/01 01:19:46;;;;;;;;;;;;;;;-5.95;66.60;102436.66;107542;1251;97950;-65
2024/02/01 01:22:15;;;;;;;;;;;;;;;-5.97;66.77;102431.77;107586;1254;97832;-65
2024/02/01 01:24:43;;;;;;;;;;;;;;;-5.96;67.20;102429.14;107570;1251;111889;-65
2024/02/01 01:27:11;;;;;;;;;;;;;;;-5.96;66.81;102428.61;107578;1250;108022;-65
2024/02/01 01:29:40;;;;;;;;;;;;;;;-5.96;67.26;102432.11;107550;1251;108429;-66
2024/02/01 01:32:08;;;;;;;;;;;;;;;-5.97;66.76;102425.48;107544;1254;97927;-64
2024/02/01 01:34:36;;;;;;;;;;;;;;;-5.99;67.01;102425.31;107596;1251;97723;-66
2024/02/01 01:37:04;;;;;;;;;;;;;;;-6.04;66.88;102421.45;107586;1251;112224;-65
2024/02/01 01:39:33;;;;;;;;;;;;;;;-6.06;66.98;102425.96;107619;1251;108637;-65
2024/02/01 01:42:01;;;;;;;;;;;;;;;-6.07;66.98;102428.06;107561;1251;108382;-65
2024/02/01 01:44:30;;;;;;;;;;;;;;;-6.07;66.68;102427.52;107593;1251;97828;-65
2024/02/01 01:46:58;;;;;;;;;;;;;;;-6.08;66.85;102424.38;107587;1254;99159;-66
2024/02/01 01:49:26;;;;;;;;;;;;;;;-6.07;67.00;102428.05;107607;1251;111826;-65
2024/02/01 01:51:54;;;;;;;;;;;;;;;-6.06;66.96;102424.23;107597;1253;108790;-66
2024/02/01 01:54:24;;;;;;;;;;;;;;;-6.04;66.90;102419.52;107571;1254;108237;-65
2024/02/01 01:56:53;;;;;;;;;;;;;;;-6.02;67.00;102411.33;107574;1254;97821;-66
2024/02/01 01:59:22;;;;;;;;;;;;;;;-6.00;66.92;102410.10;107552;1252;97713;-66
2024/02/01 02:01:51;;;;;;;;;;;;;;;-5.97;67.02;102402.41;107547;1254;110283;-65
2024/02/01 02:04:20;;;;;;;;;;;;;;;-5.94;66.87;102398.41;107597;1251;108316;-65
2024/02/01 02:06:49;;;;;;;;;;;;;;;-5.92;66.90;102401.74;107543;1251;108550;-66
2024/02/01 02:09:17;;;;;;;;;;;;;;;-5.90;67.08;102401.05;107554;1254;97831;-66
2024/02/01 02:11:45;;;;;;;;;;;;;;;-5.90;67.18;102396.34;107554;1253;97903;-65
2024/02/01 02:14:14;;;;;;;;;;;;;;;-5.90;67.27;102394.77;107627;1254;111318;-66
2024/02/01 02:16:43;;;;;;;;;;;;;;;-5.88;67.16;102388.49;107643;1251;108629;-65
2024/02/01 02:19:11;;;;;;;;;;;;;;;-5.85;67.27;102386.58;107493;1254;107589;-67
2024/02/01 02:21:44;;;;;;;;;;;;;;;-5.82;67.28;102385.20;107608;1252;97915;-66
2024/02/01 02:24:13;;;;;;;;;;;;;;;-5.82;67.08;102379.60;107559;1251;97937;-65
2024/02/01 02:26:42;;;;;;;;;;;;;;;-5.82;67.27;102381.52;107621;1251;112808;-66
2024/02/01 02:29:14;;;;;;;;;;;;;;;-5.82;66.99;102381.88;107550;1254;108490;-65
2024/02/01 02:31:43;;;;;;;;;;;;;;;-5.83;67.28;102373.66;107630;1251;107040;-65
2024/02/01 02:34:11;;;;;;;;;;;;;;;-5.81;67.20;102379.09;107493;1251;98282;-66
2024/02/01 02:36:40;;;;;;;;;;;;;;;-5.79;67.17;102381.38;107566;1251;97800;-66
2024/02/01 02:39:11;;;;;;;;;;;;;;;-5.79;66.84;102378.40;107619;1255;112247;-65
2024/02/01 02:41:40;;;;;;;;;;;;;;;-5.80;67.02;102378.05;107611;1255;108417;-64
2024/02/01 02:44:11;;;;;;;;;;;;;;;-5.85;66.81;102378.38;107525;1251;108675;-65
2024/02/01 02:46:40;;;;;;;;;;;;;;;-5.88;66.97;102381.33;107540;1251;97870;-64
2024/02/01 02:49:09;;;;;;;;;;;;;;;-5.89;66.71;102382.20;107639;1250;97710;-66
2024/02/01 02:51:39;;;;;;;;;;;;;;;-5.90;66.70;102379.91;107540;1251;111364;-66
2024/02/01 02:54:12;;;;;;;;;;;;;;;-5.92;66.81;102373.27;107574;1251;108566;-65
2024/02/01 02:56:40;;;;;;;;;;;;;;;-5.93;66.64;102370.28;107659;1251;108863;-65
2024/02/01 02:59:08;;;;;;;;;;;;;;;-5.94;66.56;102361.55;107622;1251;97844;-64
2024/02/01 03:01:37;;;;;;;;;;;;;;;-5.94;66.57;102355.25;107569;1251;98469;-66
2024/02/01 03:04:08;;;;;;;;;;;;;;;-5.96;66.66;102355.08;107604;1251;112038;-66
2024/02/01 03:06:36;;;;;;;;;;;;;;;-6.01;66.56;102354.04;107646;1251;107722;-65
2024/02/01 03:09:09;;;;;;;;;;;;;;;-6.02;66.74;102347.55;107540;1251;108004;-64
2024/02/01 03:11:39;;;;;;;;;;;;;;;-6.04;66.89;102340.20;107653;1251;97905;-65
2024/02/01 03:14:11;;;;;;;;;;;;;;;-6.04;66.97;102343.54;107560;1251;97797;-65
2024/02/01 03:16:39;;;;;;;;;;;;;;;-6.05;66.91;102337.92;107574;1251;111818;-65
2024/02/01 03:19:11;;;;;;;;;;;;;;;-6.05;67.07;102338.63;107617;1251;108163;-65
2024/02/01 03:21:40;;;;;;;;;;;;;;;-6.01;67.46;102338.65;107619;1254;107178;-65
2024/02/01 03:24:08;;;;;;;;;;;;;;;-5.98;67.10;102337.08;107615;1251;99140;-65
2024/02/01 03:26:37;;;;;;;;;;;;;;;-5.97;67.00;102340.04;107630;1251;97817;-65
2024/02/01 03:29:06;;;;;;;;;;;;;;;-5.97;66.95;102341.27;107536;1251;112162;-65
2024/02/01 03:31:34;;;;;;;;;;;;;;;-6.00;66.93;102333.77;107571;1251;108825;-65
2024/02/01 03:34:10;;;;;;;;;;;;;;;-6.02;66.88;102332.00;107554;1254;108334;-66
2024/02/01 03:36:39;;;;;;;;;;;;;;;-6.04;66.78;102321.86;107656;1251;97868;-65
2024/02/01 03:39:22;;;;;;;;;;;;;;;-6.05;66.86;102321.69;107615;1256;97893;-65
2024/02/01 03:41:51;;;;;;;;;;;;;;;-6.05;66.82;102323.95;107624;1251;111658;-65
2024/02/01 03:44:19;;;;;;;;;;;;;;;-6.05;66.89;102322.39;107620;1251;107527;-66
2024/02/01 03:46:47;;;;;;;;;;;;;;;-6.04;66.71;102318.20;107582;1251;109383;-66
2024/02/01 03:49:16;;;;;;;;;;;;;;;-6.05;66.44;102311.20;107523;1251;97820;-64
2024/02/01 03:51:44;;;;;;;;;;;;;;;-6.06;66.68;102312.43;107601;1251;97736;-67
2024/02/01 03:54:14;;;;;;;;;;;;;;;-6.09;66.52;102317.30;107604;1251;110775;-64
2024/02/01 03:56:42;;;;;;;;;;;;;;;-6.10;66.59;102317.12;107589;1254;107620;-65
2024/02/01 03:59:11;;;;;;;;;;;;;;;-6.11;66.36;102317.30;107576;1251;107482;-65
2024/02/01 04:01:40;;;;;;;;;;;;;;;-6.14;66.40;102317.27;107616;1251;97816;-66
2024/02/01 04:04:17;;;;;;;;;;;;;;;-6.15;66.53;102309.24;107545;1250;98003;-65
2024/02/01 04:06:51;;;;;;;;;;;;;;;-6.17;66.66;102309.05;107592;1251;111253;-65
2024/02/01 04:09:20;;;;;;;;;;;;;;;-6.20;66.54;102305.37;107554;1254;108916;-67
2024/02/01 04:11:49;;;;;;;;;;;;;;;-6.21;67.01;102308.33;107603;1251;108354;-65
2024/02/01 04:14:18;;;;;;;;;;;;;;;-6.18;66.67;102309.21;107588;1251;97876;-66
2024/02/01 04:16:47;;;;;;;;;;;;;;;-6.18;66.75;102309.20;107610;1251;97851;-66
2024/02/01 04:19:16;;;;;;;;;;;;;;;-6.18;66.73;102306.60;107535;1251;111852;-66
2024/02/01 04:21:46;;;;;;;;;;;;;;;-6.19;66.76;102298.56;107612;1251;108009;-66
2024/02/01 04:24:16;;;;;;;;;;;;;;;-6.19;66.84;102294.36;107615;1251;108180;-65
2024/02/01 04:26:45;;;;;;;;;;;;;;;-6.19;66.60;102294.36;107632;1251;97849;-65
2024/02/01 04:29:14;;;;;;;;;;;;;;;-6.21;66.94;102296.45;107565;1251;97957;-66
2024/02/01 04:31:43;;;;;;;;;;;;;;;-6.21;67.00;102291.20;107584;1251;111097;-65
2024/02/01 04:34:12;;;;;;;;;;;;;;;-6.21;66.83;102288.77;107531;1251;108125;-65
2024/02/01 04:36:43;;;;;;;;;;;;;;;-6.22;66.52;102284.23;107546;1251;107353;-65
2024/02/01 04:39:11;;;;;;;;;;;;;;;-6.22;66.73;102277.59;107557;1250;97817;-64
2024/02/01 04:41:41;;;;;;;;;;;;;;;-6.22;66.84;102275.13;107576;1255;97861;-66
2024/02/01 04:44:10;;;;;;;;;;;;;;;-6.21;66.61;102273.39;107549;1251;111269;-65
2024/02/01 04:46:38;;;;;;;;;;;;;;;-6.21;67.00;102270.77;107573;1251;108277;-65
2024/02/01 04:49:11;;;;;;;;;;;;;;;-6.22;66.69;102269.91;107564;1251;108377;-66
2024/02/01 04:51:41;;;;;;;;;;;;;;;-6.22;66.82;102265.36;107492;1251;98520;-64
2024/02/01 04:54:10;;;;;;;;;;;;;;;-6.23;66.79;102255.05;107599;1251;97818;-65
2024/02/01 04:56:40;;;;;;;;;;;;;;;-6.22;67.00;102255.58;107605;1251;111325;-65
2024/02/01 04:59:10;;;;;;;;;;;;;;;-6.22;66.98;102248.23;107609;1251;108391;-65
2024/02/01 05:01:38;;;;;;;;;;;;;;;-6.20;66.95;102246.52;107511;1251;107317;-66
2024/02/01 05:04:13;;;;;;;;;;;;;;;-6.16;67.01;102250.90;107577;1250;97856;-65
2024/02/01 05:06:42;;;;;;;;;;;;;;;-6.17;66.92;102245.48;107557;1251;97799;-65
2024/02/01 05:09:26;;;;;;;;;;;;;;;-6.19;67.02;102251.05;107622;1251;112152;-65
2024/02/01 05:11:54;;;;;;;;;;;;;;;-6.22;67.22;102247.20;107557;1254;107970;-66
2024/02/01 05:14:23;;;;;;;;;;;;;;;-6.20;66.99;102249.30;107523;1253;108669;-65
2024/02/01 05:16:52;;;;;;;;;;;;;;;-6.20;67.08;102243.71;107519;1251;97837;-64
2024/02/01 05:19:20;;;;;;;;;;;;;;;-6.21;67.12;102242.84;107708;1251;97909;-65
2024/02/01 05:21:52;;;;;;;;;;;;;;;-6.26;66.55;102242.29;107647;1251;110506;-65
2024/02/01 05:24:21;;;;;;;;;;;;;;;-6.29;66.83;102238.61;107640;1251;106786;-66
2024/02/01 05:26:52;;;;;;;;;;;;;;;-6.27;67.04;102237.39;107638;1251;108742;-65
2024/02/01 05:29:21;;;;;;;;;;;;;;;-6.25;67.22;102237.75;107617;1251;97892;-65
2024/02/01 05:31:53;;;;;;;;;;;;;;;-6.23;66.90;102240.55;107674;1251;97719;-65
2024/02/01 05:34:22;;;;;;;;;;;;;;;-6.25;66.89;102237.75;107607;1251;111637;-64
2024/02/01 05:36:52;;;;;;;;;;;;;;;-6.26;66.95;102238.27;107580;1251;108845;-64
2024/02/01 05:39:30;;;;;;;;;;;;;;;-6.24;67.04;102240.38;107621;1251;108854;-64
2024/02/01 05:41:59;;;;;;;;;;;;;;;-6.24;66.94;102243.17;107544;1254;97924;-65
2024/02/01 05:44:28;;;;;;;;;;;;;;;-6.20;67.42;102239.69;107554;1254;97710;-66
2024/02/01 05:46:57;;;;;;;;;;;;;;;-6.16;67.78;102242.86;107554;1251;112125;-64
2024/02/01 05:49:28;;;;;;;;;;;;;;;-6.11;67.44;102237.47;107584;1254;108491;-66
2024/02/01 05:52:04;;;;;;;;;;;;;;;-6.10;67.55;102232.06;107592;1251;108461;-64
2024/02/01 05:54:33;;;;;;;;;;;;;;;-6.11;67.72;102232.39;107586;1256;97880;-64
2024/02/01 05:57:03;;;;;;;;;;;;;;;-6.11;67.97;102235.02;107599;1251;97966;-64
2024/02/01 05:59:33;;;;;;;;;;;;;;;-6.10;68.29;102236.95;107619;1251;110196;-65
2024/02/01 06:02:05;;;;;;;;;;;;;;;-6.06;68.68;102236.09;107604;1251;108404;-66
2024/02/01 06:04:34;;;;;;;;;;;;;;;-6.01;69.03;102235.77;107605;1255;108596;-65
2024/02/01 06:07:04;;;;;;;;;;;;;;;-5.96;69.04;102231.56;107555;1251;98001;-66
2024/02/01 06:09:33;;;;;;;;;;;;;;;-5.90;69.32;102229.30;107541;1251;97838;-64
2024/02/01 06:12:01;;;;;;;;;;;;;;;-5.83;68.90;102220.41;107608;1251;111526;-66
2024/02/01 06:14:30;;;;;;;;;;;;;;;-5.80;68.92;102219.55;107560;1254;108471;-63
2024/02/01 06:16:58;;;;;;;;;;;;;;;-5.78;68.97;102215.01;107504;1253;108491;-64
2024/02/01 06:19:26;;;;;;;;;;;;;;;-5.77;68.95;102211.34;107515;1255;98380;-66
2024/02/01 06:21:54;;;;;;;;;;;;;;;-5.75;69.05;102206.46;107638;1251;97937;-65
2024/02/01 06:24:23;;;;;;;;;;;;;;;-5.69;69.59;102206.13;107629;1251;111865;-66
2024/02/01 06:26:52;;;;;;;;;;;;;;;-5.63;69.54;102201.23;107514;1254;108204;-65
2024/02/01 06:29:21;;;;;;;;;;;;;;;-5.56;69.70;102199.85;107529;1251;107857;-64
2024/02/01 06:31:49;;;;;;;;;;;;;;;-5.54;69.66;102201.25;107499;1251;98517;-64
2024/02/01 06:34:24;;;;;;;;;;;;;;;-5.54;70.01;102203.17;107600;1251;97970;-64
2024/02/01 06:36:58;;;;;;;;;;;;;;;-5.53;70.06;102198.28;107562;1251;110617;-64
2024/02/01 06:40:09;;;;;;;;;;;;;;;-5.47;70.59;102192.17;107564;1254;108007;-65
2024/02/01 06:42:31;;;;;;;;;;;;;;;-5.38;70.86;102190.96;107615;1251;106741;-66
2024/02/01 06:45:24;;;;;;;;;;;;;;;-5.35;71.02;102185.02;107460;1251;97825;-65
2024/02/01 06:48:00;;;;;;;;;;;;;;;-5.33;71.09;102186.95;107576;1251;97688;-65
2024/02/01 06:53:20;;;;;;;;;;;;;;;-5.09;71.37;102182.38;107536;1255;108327;-67
2024/02/01 06:55:57;;;;;;;;;;;;;;;-5.00;71.38;102174.68;107562;1255;107614;-65
2024/02/01 06:58:39;;;;;;;;;;;;;;;-4.92;71.15;102170.80;107521;1254;97863;-65
2024/02/01 07:01:23;;;;;;;;;;;;;;;-4.82;71.31;102162.92;107581;1253;97816;-65
2024/02/01 07:04:07;;;;;;;;;;;;;;;-4.73;71.31;102158.88;107516;1251;112190;-65
2024/02/01 07:06:38;;;;;;;;;;;;;;;-4.62;71.33;102150.80;107507;1251;108603;-66
2024/02/01 07:09:17;;;;;;;;;;;;;;;-4.55;71.57;102147.45;107569;1251;110249;-65
2024/02/01 07:12:09;;;;;;;;;;;;;;;-4.45;71.76;102145.13;107489;1254;97849;-65
2024/02/01 07:14:36;;;;;;;;;;;;;;;-4.34;71.96;102140.35;107464;1253;97838;-66
2024/02/01 07:20:14;;;;;;;;;;;;;;;-4.14;71.76;102126.94;107445;1256;108600;-66
2024/02/01 07:23:00;;;;;;;;;;;;;;;-4.13;72.17;102122.73;107562;1254;107898;-66
2024/02/01 07:25:47;;;;;;;;;;;;;;;-4.13;72.19;102120.80;107508;1254;97915;-66
2024/02/01 07:59:27;;;;;;;;;;;;;;;-3.08;72.75;102091.74;106968;1262;111459;-64
2024/02/01 08:02:24;;;;;;;;;;;;;;;-2.98;72.94;102082.33;107462;1251;109038;-66
2024/02/01 08:07:47;;;;;;;;;;;;;;;-2.74;72.53;102063.27;107506;1256;97852;-67
2024/02/01 08:10:19;;;;;;;;;;;;;;;-2.66;72.31;102065.45;107564;1254;97848;-66
2024/02/01 08:12:48;;;;;;;;;;;;;;;-2.60;72.13;102060.45;107567;1256;110822;-66
2024/02/01 08:15:20;;;;;;;;;;;;;;;-2.57;72.12;102062.00;107566;1252;108682;-67
2024/02/01 08:17:50;;;;;;;;;;;;;;;-2.45;72.35;102052.02;107613;1254;106957;-65
2024/02/01 08:20:21;;;;;;;;;;;;;;;-2.30;72.28;102050.57;107589;1251;97845;-67
2024/02/01 08:22:49;;;;;;;;;;;;;;;-2.19;71.97;102048.48;107527;1254;97920;-66
2024/02/01 08:25:17;;;;;;;;;;;;;;;-2.16;71.84;102045.27;107477;1256;111861;-66
2024/02/01 08:27:55;;;;;;;;;;;;;;;-2.08;71.87;102051.83;107668;1250;108283;-66
2024/02/01 08:30:27;;;;;;;;;;;;;;;-1.96;71.81;102048.66;107527;1253;108145;-66
2024/02/01 08:33:05;;;;;;;;;;;;;;;-1.89;71.62;102047.15;107496;1254;99293;-67
2024/02/01 08:35:37;;;;;;;;;;;;;;;-1.83;71.33;102040.89;107506;1251;97715;-68
2024/02/01 08:38:09;;;;;;;;;;;;;;;-1.79;71.32;102038.89;107491;1251;110399;-66
2024/02/01 08:40:40;;;;;;;;;;;;;;;-1.65;71.61;102034.09;107526;1255;108957;-66
2024/02/01 08:43:10;;;;;;;;;;;;;;;-1.52;71.79;102027.18;107454;1251;107354;-65
2024/02/01 08:45:39;;;;;;;;;;;;;;;-1.43;71.93;102016.45;106967;1251;805529;-66
2024/02/01 08:48:10;;;;;;;;;;;;;;;-1.42;71.66;102014.50;107543;1254;97790;-67
2024/02/01 08:50:43;;;;;;;;;;;;;;;-1.32;71.65;102015.71;107577;1254;111767;-66
2024/02/01 08:53:12;;;;;;;;;;;;;;;-1.15;71.88;102011.70;107572;1251;108632;-66
2024/02/01 08:55:41;;;;;;;;;;;;;;;-0.98;71.86;102007.30;107439;1254;108280;-66
2024/02/01 08:58:11;;;;;;;;;;;;;;;-0.80;71.71;102005.18;107518;1253;97849;-66
2024/02/01 09:00:42;;;;;;;;;;;;;;;-0.72;71.47;101997.43;107394;1254;97837;-67
2024/02/01 09:03:17;;;;;;;;;;;;;;;-0.61;71.35;101996.15;107522;1254;111364;-66
2024/02/01 09:05:48;;;;;;;;;;;;;;;-0.45;71.24;101986.79;107522;1256;106717;-66
2024/02/01 09:08:24;;;;;;;;;;;;;;;-0.34;71.08;101980.19;107441;1250;108558;-65
2024/02/01 09:11:01;;;;;;;;;;;;;;;-0.16;70.83;101978.36;107459;1255;97822;-67
2024/02/01 09:13:30;;;;;;;;;;;;;;;0.12;70.88;101974.67;107562;1256;97838;-67
2024/02/01 09:15:58;;;;;;;;;;;;;;;0.42;70.71;101972.29;107558;1256;112059;-66
2024/02/01 09:18:27;;;;;;;;;;;;;;;0.68;70.44;101965.24;107561;1257;109172;-67
2024/02/01 09:20:56;;;;;;;;;;;;;;;1.20;69.75;101955.10;107559;1253;107359;-66
2024/02/01 09:23:24;;;;;;;;;;;;;;;1.68;68.63;101943.86;107561;1254;97714;-65
2024/02/01 09:25:52;;;;;;;;;;;;;;;2.17;67.89;101937.48;107453;1254;97818;-65
2024/02/01 09:28:21;;;;;;;;;;;;;;;2.83;67.35;101928.40;107503;1251;112260;-66
2024/02/01 09:30:51;;;;;;;;;;;;;;;3.49;66.73;101919.45;107576;1251;108421;-67
2024/02/01 09:33:20;;;;;;;;;;;;;;;4.08;66.23;101910.96;107628;1251;108079;-66
2024/02/01 09:35:49;;;;;;;;;;;;;;;4.77;65.97;101902.79;107533;1252;97838;-67
2024/02/01 09:38:19;;;;;;;;;;;;;;;5.34;63.69;101888.58;107605;1251;97912;-67
2024/02/01 09:40:47;;;;;;;;;;;;;;;5.75;62.09;101873.35;107505;1253;110575;-67
2024/02/01 09:43:23;;;;;;;;;;;;;;;6.27;61.77;101861.33;107531;1254;108534;-66
2024/02/01 09:45:52;;;;;;;;;;;;;;;6.75;60.61;101857.70;107523;1256;108997;-65
2024/02/01 09:48:21;;;;;;;;;;;;;;;7.07;58.90;101860.71;107590;1251;97838;-65
2024/02/01 09:50:51;;;;;;;;;;;;;;;7.17;58.28;101868.17;107505;1250;97847;-66
2024/02/01 09:53:24;;;;;;;;;;;;;;;7.68;55.91;101868.83;107618;1251;111264;-67
2024/02/01 09:55:54;;;;;;;;;;;;;;;7.91;55.43;101857.14;107558;1251;106941;-67
2024/02/01 09:58:22;;;;;;;;;;;;;;;7.99;52.93;101857.77;107478;1251;108879;-66
2024/02/01 10:00:50;;;;;;;;;;;;;;;7.90;52.29;101860.40;107540;1251;97844;-66
2024/02/01 10:03:27;;;;;;;;;;;;;;;7.97;53.49;101855.88;107585;1253;97775;-66
2024/02/01 10:06:04;;;;;;;;;;;;;;;8.38;53.79;101852.67;107655;1251;111346;-67
2024/02/01 10:08:35;;;;;;;;;;;;;;;8.85;52.85;101846.00;107492;1254;107936;-65
2024/02/01 10:11:03;;;;;;;;;;;;;;;9.26;52.27;101846.95;107544;1252;106725;-67
2024/02/01 10:13:35;;;;;;;;;;;;;;;9.53;51.62;101844.27;107461;1254;97866;-69
2024/02/01 10:16:12;;;;;;;;;;;;;;;9.93;51.02;101833.48;107553;1251;97825;-68
2024/02/01 10:18:43;;;;;;;;;;;;;;;10.18;48.85;101830.38;107642;1251;110808;-68
2024/02/01 10:21:25;;;;;;;;;;;;;;;10.45;49.38;101823.85;107604;1256;107370;-69
2024/02/01 10:24:07;;;;;;;;;;;;;;;10.73;49.62;101818.05;107440;1251;107590;-67
2024/02/01 10:26:36;;;;;;;;;;;;;;;11.16;48.76;101807.91;107516;1251;97844;-68
2024/02/01 10:29:06;;;;;;;;;;;;;;;11.52;48.05;101801.63;107533;1251;97834;-68
2024/02/01 10:31:40;;;;;;;;;;;;;;;11.64;46.96;101794.46;107532;1251;112096;-68
2024/02/01 10:34:10;;;;;;;;;;;;;;;11.85;46.16;101796.05;107520;1251;109135;-65
2024/02/01 10:36:42;;;;;;;;;;;;;;;11.59;44.76;101795.39;107488;1254;108309;-68
2024/02/01 10:39:14;;;;;;;;;;;;;;;11.61;45.90;101789.10;107465;1253;97856;-69
2024/02/01 10:41:49;;;;;;;;;;;;;;;11.69;45.17;101790.67;107639;1251;97917;-67
2024/02/01 10:44:17;;;;;;;;;;;;;;;11.79;44.16;101788.67;107498;1251;111137;-68
2024/02/01 10:46:53;;;;;;;;;;;;;;;11.79;43.47;101787.57;107587;1251;107787;-65
2024/02/01 10:49:24;;;;;;;;;;;;;;;11.86;44.65;101784.72;107503;1251;108078;-67
2024/02/01 10:51:55;;;;;;;;;;;;;;;12.00;43.29;101775.55;107626;1251;97765;-66
2024/02/01 10:54:27;;;;;;;;;;;;;;;12.09;43.92;101771.28;107513;1253;98309;-67
2024/02/01 10:57:05;;;;;;;;;;;;;;;12.49;42.48;101765.69;107553;1254;111614;-68
2024/02/01 10:59:36;;;;;;;;;;;;;;;12.59;42.15;101759.38;107502;1251;107694;-68
2024/02/01 11:02:04;;;;;;;;;;;;;;;12.71;41.69;101757.34;107543;1251;106738;-68
2024/02/01 11:04:35;;;;;;;;;;;;;;;12.68;40.81;101749.31;107510;1251;97848;-68
2024/02/01 11:07:03;;;;;;;;;;;;;;;12.51;40.90;101744.02;107599;1254;97926;-71
2024/02/01 11:09:31;;;;;;;;;;;;;;;12.82;42.63;101731.21;107605;1251;111765;-66
2024/02/01 11:12:10;;;;;;;;;;;;;;;13.24;42.05;101723.36;107554;1251;107943;-67
2024/02/01 11:14:38;;;;;;;;;;;;;;;13.67;41.67;101724.60;107538;1254;108353;-67
2024/02/01 11:17:17;;;;;;;;;;;;;;;14.04;40.86;101719.44;107520;1251;97835;-66
2024/02/01 11:19:50;;;;;;;;;;;;;;;14.11;40.36;101713.00;107519;1251;97930;-67
2024/02/01 11:22:19;;;;;;;;;;;;;;;14.45;40.61;101698.26;107566;1253;111420;-69
2024/02/01 11:24:48;;;;;;;;;;;;;;;14.60;39.45;101683.92;107553;1251;108074;-69
2024/02/01 11:27:19;;;;;;;;;;;;;;;14.47;38.33;101683.84;107540;1251;107542;-67
2024/02/01 11:29:51;;;;;;;;;;;;;;;14.23;38.51;101682.04;107589;1251;97940;-66
2024/02/01 11:32:31;;;;;;;;;;;;;;;13.91;38.70;101680.39;107529;1254;97819;-68
2024/02/01 11:34:59;;;;;;;;;;;;;;;13.99;40.00;101679.31;107615;1254;112318;-67
2024/02/01 11:37:28;;;;;;;;;;;;;;;14.46;40.07;101666.30;107502;1254;108040;-66
2024/02/01 11:39:57;;;;;;;;;;;;;;;14.78;39.41;101656.32;107583;1254;109676;-65
2024/02/01 11:42:26;;;;;;;;;;;;;;;14.99;39.50;101652.55;107602;1254;97859;-67
2024/02/01 11:45:00;;;;;;;;;;;;;;;15.10;38.46;101650.45;107649;1254;97864;-68
2024/02/01 11:47:33;;;;;;;;;;;;;;;14.89;38.13;101645.39;107602;1254;112048;-66
2024/02/01 11:50:02;;;;;;;;;;;;;;;14.89;38.44;101639.45;107645;1254;105713;-64
2024/02/01 11:52:43;;;;;;;;;;;;;;;14.86;38.05;101636.79;107522;1253;107511;-64
2024/02/01 11:55:14;;;;;;;;;;;;;;;14.55;38.05;101633.07;107525;1256;97813;-66
2024/02/01 11:57:54;;;;;;;;;;;;;;;13.88;37.81;101632.63;107633;1256;97739;-67
2024/02/01 12:00:23;;;;;;;;;;;;;;;13.22;38.98;101629.66;107527;1254;111837;-67
2024/02/01 12:03:11;;;;;;;;;;;;;;;12.88;39.86;101626.63;107652;1255;108200;-67
2024/02/01 12:05:45;;;;;;;;;;;;;;;12.71;40.13;101619.23;107578;1255;107808;-67
2024/02/01 12:08:13;;;;;;;;;;;;;;;12.36;40.70;101610.08;107576;1254;97840;-67
2024/02/01 12:10:45;;;;;;;;;;;;;;;11.97;41.03;101600.30;107409;1254;97913;-66
2024/02/01 12:13:15;;;;;;;;;;;;;;;11.62;41.35;101596.79;107570;1254;111320;-67
2024/02/01 12:15:45;;;;;;;;;;;;;;;11.44;41.68;101591.40;107611;1251;108974;-68
2024/02/01 12:18:14;;;;;;;;;;;;;;;11.27;41.90;101599.17;107458;1254;108064;-69
2024/02/01 12:20:42;;;;;;;;;;;;;;;11.03;42.13;101594.97;107498;1253;97854;-69
2024/02/01 12:23:12;;;;;;;;;;;;;;;10.79;42.38;101595.69;107601;1254;97940;-68
2024/02/01 12:25:44;;;;;;;;;;;;;;;10.54;42.83;101589.73;107487;1251;110852;-67
2024/02/01 12:28:14;;;;;;;;;;;;;;;10.36;42.82;101587.05;107516;1254;108031;-67
2024/02/01 12:30:44;;;;;;;;;;;;;;;10.22;42.88;101584.45;107540;1257;106685;-70
2024/02/01 12:33:13;;;;;;;;;;;;;;;10.01;43.82;101587.09;107477;1251;97816;-68
2024/02/01 12:35:43;;;;;;;;;;;;;;;9.81;43.77;101582.59;107543;1251;97863;-68
2024/02/01 12:38:14;;;;;;;;;;;;;;;9.64;44.10;101583.12;107480;1251;111425;-68
2024/02/01 12:40:44;;;;;;;;;;;;;;;9.45;44.25;101583.55;107495;1251;109622;-68
2024/02/01 12:43:14;;;;;;;;;;;;;;;9.34;44.88;101574.87;107521;1251;107549;-67
2024/02/01 12:45:46;;;;;;;;;;;;;;;9.17;45.40;101569.37;107524;1251;97845;-68
2024/02/01 12:48:16;;;;;;;;;;;;;;;8.72;45.99;101564.80;107507;1251;97677;-67
2024/02/01 12:50:46;;;;;;;;;;;;;;;8.67;46.49;101563.54;107422;1251;112023;-68
2024/02/01 12:53:14;;;;;;;;;;;;;;;8.69;46.82;101555.16;107508;1254;108491;-69
2024/02/01 12:55:42;;;;;;;;;;;;;;;8.78;46.76;101546.52;107484;1251;108398;-67
2024/02/01 12:58:11;;;;;;;;;;;;;;;8.69;46.53;101543.58;107456;1251;97899;-69
2024/02/01 13:00:39;;;;;;;;;;;;;;;8.39;47.02;101533.38;107500;1251;97824;-68
2024/02/01 13:03:08;;;;;;;;;;;;;;;7.94;47.56;101529.56;107446;1250;111797;-68
2024/02/01 13:05:36;;;;;;;;;;;;;;;7.62;47.84;101531.92;107616;1251;108401;-68
2024/02/01 13:08:06;;;;;;;;;;;;;;;7.45;48.39;101530.85;107496;1251;107823;-67
2024/02/01 13:10:38;;;;;;;;;;;;;;;7.18;48.57;101528.59;107471;1250;97927;-67
2024/02/01 13:13:08;;;;;;;;;;;;;;;6.89;49.46;101530.20;107488;1251;97813;-67
2024/02/01 13:15:46;;;;;;;;;;;;;;;6.69;49.23;101530.89;107680;1254;111327;-66
2024/02/01 13:18:15;;;;;;;;;;;;;;;6.55;50.07;101536.01;107496;1250;108560;-67
2024/02/01 13:20:45;;;;;;;;;;;;;;;6.36;51.00;101531.57;107527;1251;107572;-68